createdAt,value
2019-05-28T00:00:51.111Z,13.15
2019-05-28T00:03:19.998Z,13.11
2019-05-28T00:05:49.137Z,13.10
2019-05-28T00:08:18.492Z,13.10
2019-05-28T00:10:47.694Z,13.11
2019-05-28T00:13:16.602Z,13.10
2019-05-28T00:15:45.594Z,13.09
2019-05-28T00:18:14.427Z,13.10
2019-05-28T00:20:43.259Z,13.12
2019-05-28T00:23:12.557Z,13.12
2019-05-28T00:25:43.062Z,13.12
2019-05-28T00:28:11.897Z,13.12
2019-05-28T00:30:41.875Z,13.14
2019-05-28T00:33:12.332Z,13.15
2019-05-28T00:35:42.418Z,13.18
2019-05-28T00:38:11.326Z,13.20
2019-05-28T00:40:40.299Z,13.22
2019-05-28T00:43:09.685Z,13.22
2019-05-28T00:45:38.544Z,13.25
2019-05-28T00:48:07.400Z,13.28
2019-05-28T00:50:37.046Z,13.29
2019-05-28T00:53:05.924Z,13.32
2019-05-28T00:55:34.879Z,13.34
2019-05-28T00:58:03.711Z,13.36
2019-05-28T01:00:46.221Z,13.34
2019-05-28T01:03:15.036Z,13.29
2019-05-28T01:05:43.880Z,13.23
2019-05-28T01:08:12.764Z,13.17
2019-05-28T01:10:41.720Z,13.16
2019-05-28T01:13:10.589Z,13.16
2019-05-28T01:15:39.407Z,13.17
2019-05-28T01:18:09.125Z,13.17
2019-05-28T01:20:38.158Z,13.19
2019-05-28T01:23:07.059Z,13.21
2019-05-28T01:25:35.922Z,13.23
2019-05-28T01:28:04.883Z,13.23
2019-05-28T01:30:33.720Z,13.24
2019-05-28T01:33:04.049Z,13.26
2019-05-28T01:35:36.903Z,13.28
2019-05-28T01:38:08.359Z,13.29
2019-05-28T01:40:34.625Z,13.32
2019-05-28T01:43:03.709Z,13.36
2019-05-28T01:45:32.611Z,13.39
2019-05-28T01:48:01.440Z,13.41
2019-05-28T01:50:30.259Z,13.44
2019-05-28T01:52:59.116Z,13.44
2019-05-28T01:55:27.924Z,13.45
2019-05-28T01:57:58.168Z,13.46
2019-05-28T02:00:27.069Z,13.45
2019-05-28T02:02:55.958Z,13.45
2019-05-28T02:05:24.827Z,13.45
2019-05-28T02:07:54.660Z,13.48
2019-05-28T02:10:24.193Z,13.48
2019-05-28T02:12:53.181Z,13.49
2019-05-28T02:15:22.010Z,13.47
2019-05-28T02:17:52.891Z,13.49
2019-05-28T02:20:22.979Z,13.50
2019-05-28T02:22:51.872Z,13.50
2019-05-28T02:25:20.713Z,13.50
2019-05-28T02:27:50.244Z,13.46
2019-05-28T02:30:19.191Z,13.40
2019-05-28T02:32:48.624Z,13.31
2019-05-28T02:35:17.456Z,13.29
2019-05-28T02:37:46.822Z,13.27
2019-05-28T02:40:16.307Z,13.23
2019-05-28T02:42:45.119Z,13.20
2019-05-28T02:45:13.981Z,13.19
2019-05-28T02:47:43.517Z,13.19
2019-05-28T02:50:12.436Z,13.20
2019-05-28T02:52:41.345Z,13.22
2019-05-28T02:55:10.189Z,13.24
2019-05-28T02:57:39.514Z,13.27
2019-05-28T03:00:08.762Z,13.33
2019-05-28T03:02:37.598Z,13.38
2019-05-28T03:05:07.208Z,13.43
2019-05-28T03:07:36.020Z,13.48
2019-05-28T03:10:05.615Z,13.53
2019-05-28T03:12:34.411Z,13.54
2019-05-28T03:15:04.529Z,13.56
2019-05-28T03:17:34.020Z,13.60
2019-05-28T03:20:02.849Z,13.64
2019-05-28T03:22:32.033Z,13.67
2019-05-28T03:25:00.845Z,13.69
2019-05-28T03:27:29.680Z,13.70
2019-05-28T03:29:58.504Z,13.71
2019-05-28T03:32:27.323Z,13.72
2019-05-28T03:34:56.436Z,13.73
2019-05-28T03:37:25.919Z,13.71
2019-05-28T03:39:54.734Z,13.73
2019-05-28T03:42:23.560Z,13.71
2019-05-28T03:44:52.914Z,13.70
2019-05-28T03:47:21.804Z,13.66
2019-05-28T03:49:51.629Z,13.65
2019-05-28T03:52:20.430Z,13.63
2019-05-28T03:54:50.603Z,13.58
2019-05-28T03:57:19.532Z,13.59
2019-05-28T03:59:48.374Z,13.60
2019-05-28T04:02:23.631Z,13.61
2019-05-28T04:04:47.406Z,13.60
2019-05-28T04:07:16.219Z,13.53
2019-05-28T04:09:45.672Z,13.47
2019-05-28T04:12:15.391Z,13.46
2019-05-28T04:14:44.301Z,13.47
2019-05-28T04:17:13.186Z,13.50
2019-05-28T04:19:42.146Z,13.51
2019-05-28T04:22:11.670Z,13.53
2019-05-28T04:24:40.652Z,13.47
2019-05-28T04:27:09.519Z,13.43
2019-05-28T04:29:38.366Z,13.29
2019-05-28T04:32:07.194Z,13.20
2019-05-28T04:34:36.029Z,13.05
2019-05-28T04:37:05.834Z,13.03
2019-05-28T04:39:35.593Z,12.98
2019-05-28T04:42:04.227Z,12.97
2019-05-28T04:44:33.087Z,12.94
2019-05-28T04:47:03.588Z,12.99
2019-05-28T04:49:32.424Z,13.08
2019-05-28T04:52:01.773Z,13.18
2019-05-28T04:54:30.572Z,13.21
2019-05-28T04:57:00.028Z,13.19
2019-05-28T04:59:28.842Z,13.21
2019-05-28T05:01:59.179Z,13.25
2019-05-28T05:04:28.320Z,13.42
2019-05-28T05:06:57.167Z,13.57
2019-05-28T05:09:26.164Z,13.71
2019-05-28T05:11:55.067Z,13.74
2019-05-28T05:14:23.883Z,13.80
2019-05-28T05:16:52.737Z,13.79
2019-05-28T05:19:22.455Z,13.91
2019-05-28T05:21:52.598Z,14.00
2019-05-28T05:24:21.492Z,14.08
2019-05-28T05:26:52.878Z,14.16
2019-05-28T05:29:19.359Z,14.22
2019-05-28T05:31:48.421Z,14.12
2019-05-28T05:34:17.275Z,13.91
2019-05-28T05:36:47.025Z,13.74
2019-05-28T05:39:17.185Z,13.66
2019-05-28T05:41:46.923Z,13.71
2019-05-28T05:44:15.808Z,13.81
2019-05-28T05:46:44.664Z,13.91
2019-05-28T05:49:13.592Z,13.91
2019-05-28T05:51:44.082Z,13.96
2019-05-28T05:54:13.220Z,13.98
2019-05-28T05:56:42.092Z,14.02
2019-05-28T05:59:10.903Z,14.07
2019-05-28T06:01:40.064Z,14.03
2019-05-28T06:04:08.922Z,14.04
2019-05-28T06:06:37.749Z,14.02
2019-05-28T06:09:07.484Z,13.94
2019-05-28T06:11:36.414Z,13.78
2019-05-28T06:14:05.255Z,13.60
2019-05-28T06:16:34.125Z,13.26
2019-05-28T06:19:03.858Z,12.98
2019-05-28T06:21:32.658Z,12.93
2019-05-28T06:24:01.471Z,12.97
2019-05-28T06:26:30.584Z,12.93
2019-05-28T06:28:59.525Z,12.88
2019-05-28T06:31:28.415Z,12.82
2019-05-28T06:33:57.655Z,12.74
2019-05-28T06:36:28.576Z,12.71
2019-05-28T06:38:57.483Z,12.74
2019-05-28T06:41:27.354Z,12.80
2019-05-28T06:43:56.168Z,12.76
2019-05-28T06:46:28.098Z,12.77
2019-05-28T06:48:56.906Z,12.67
2019-05-28T06:51:25.758Z,12.67
2019-05-28T06:53:54.617Z,12.69
2019-05-28T06:56:23.632Z,12.68
2019-05-28T06:58:52.797Z,12.69
2019-05-28T07:01:21.769Z,12.64
2019-05-28T07:03:50.612Z,12.51
2019-05-28T07:06:19.472Z,12.51
2019-05-28T07:08:48.891Z,12.51
2019-05-28T07:11:17.743Z,12.54
2019-05-28T07:13:46.598Z,12.47
2019-05-28T07:16:15.534Z,12.39
2019-05-28T07:18:44.458Z,12.30
2019-05-28T07:21:14.080Z,12.23
2019-05-28T07:23:42.774Z,12.24
2019-05-28T07:26:11.579Z,12.26
2019-05-28T07:28:40.486Z,12.32
2019-05-28T07:31:09.955Z,12.37
2019-05-28T07:33:39.801Z,12.45
2019-05-28T07:36:08.703Z,12.53
2019-05-28T07:38:37.640Z,12.64
2019-05-28T07:41:06.431Z,12.72
2019-05-28T07:43:35.257Z,12.73
2019-05-28T07:46:04.152Z,12.75
2019-05-28T07:48:34.328Z,12.68
2019-05-28T07:51:03.810Z,12.72
2019-05-28T07:53:40.145Z,12.75
2019-05-28T07:56:02.210Z,12.83
2019-05-28T07:58:31.108Z,12.82
2019-05-28T08:00:59.936Z,12.90
2019-05-28T08:03:28.803Z,12.95
2019-05-28T08:05:57.642Z,13.06
2019-05-28T08:08:26.475Z,13.16
2019-05-28T08:10:57.626Z,13.17
2019-05-28T08:13:40.209Z,13.24
2019-05-28T08:16:14.727Z,13.16
2019-05-28T08:18:24.790Z,13.20
2019-05-28T08:20:55.081Z,13.28
2019-05-28T08:23:24.977Z,13.47
2019-05-28T08:25:54.886Z,13.64
2019-05-28T08:28:23.774Z,13.68
2019-05-28T08:30:52.641Z,13.83
2019-05-28T08:33:21.521Z,13.93
2019-05-28T08:35:51.702Z,13.99
2019-05-28T08:38:19.470Z,14.13
2019-05-28T08:40:50.288Z,14.14
2019-05-28T08:43:19.158Z,14.10
2019-05-28T08:45:47.974Z,14.11
2019-05-28T08:48:16.837Z,14.16
2019-05-28T08:50:50.009Z,14.25
2019-05-28T08:53:18.952Z,14.40
2019-05-28T08:55:47.776Z,14.52
2019-05-28T08:58:17.321Z,14.67
2019-05-28T09:00:46.155Z,14.69
2019-05-28T09:03:15.558Z,14.82
2019-05-28T09:05:45.691Z,14.86
2019-05-28T09:08:37.826Z,14.79
2019-05-28T09:10:51.714Z,14.83
2019-05-28T09:13:20.549Z,14.90
2019-05-28T09:15:51.028Z,15.00
2019-05-28T09:18:19.918Z,14.88
2019-05-28T09:20:49.344Z,14.99
2019-05-28T09:23:19.107Z,15.21
2019-05-28T09:25:47.953Z,15.37
2019-05-28T09:28:29.008Z,15.55
2019-05-28T09:30:45.976Z,15.48
2019-05-28T09:33:15.513Z,15.43
2019-05-28T09:35:55.956Z,15.56
2019-05-28T09:38:13.243Z,15.51
2019-05-28T09:40:49.747Z,15.56
2019-05-28T09:43:11.801Z,15.50
2019-05-28T09:45:40.714Z,15.26
2019-05-28T09:48:09.566Z,15.24
2019-05-28T09:50:38.447Z,15.29
2019-05-28T09:53:07.258Z,15.26
2019-05-28T09:55:36.202Z,15.16
2019-05-28T09:58:05.293Z,15.12
2019-05-28T10:00:36.765Z,15.11
2019-05-28T10:03:06.233Z,15.07
2019-05-28T10:05:35.083Z,15.04
2019-05-28T10:08:04.031Z,14.92
2019-05-28T10:10:32.918Z,14.85
2019-05-28T10:13:02.479Z,14.74
2019-05-28T10:15:32.126Z,14.49
2019-05-28T10:18:00.228Z,14.38
2019-05-28T10:20:31.325Z,14.39
2019-05-28T10:23:00.976Z,14.37
2019-05-28T10:25:29.858Z,14.42
2019-05-28T10:28:01.277Z,14.44
2019-05-28T10:30:27.501Z,14.35
2019-05-28T10:32:56.910Z,14.24
2019-05-28T10:35:26.319Z,14.17
2019-05-28T10:37:55.275Z,14.28
2019-05-28T10:40:24.238Z,14.43
2019-05-28T10:42:53.092Z,14.52
2019-05-28T10:45:21.948Z,14.46
2019-05-28T10:47:53.025Z,14.52
2019-05-28T10:50:21.577Z,14.40
2019-05-28T10:52:52.397Z,14.41
2019-05-28T10:55:21.223Z,14.34
2019-05-28T10:57:50.259Z,14.43
2019-05-28T11:00:19.113Z,14.50
2019-05-28T11:02:47.949Z,14.52
2019-05-28T11:05:18.379Z,14.62
2019-05-28T11:07:47.197Z,14.70
2019-05-28T11:10:24.964Z,14.72
2019-05-28T11:12:45.461Z,14.74
2019-05-28T11:15:14.296Z,14.72
2019-05-28T11:17:43.105Z,14.70
2019-05-28T11:20:11.961Z,14.59
2019-05-28T11:22:42.093Z,14.57
2019-05-28T11:25:10.925Z,14.49
2019-05-28T11:27:46.387Z,14.47
2019-05-28T11:30:15.280Z,14.55
2019-05-28T11:32:44.149Z,14.67
2019-05-28T11:35:13.016Z,14.76
2019-05-28T11:37:41.843Z,14.86
2019-05-28T11:40:11.762Z,15.04
2019-05-28T11:42:41.313Z,14.92
2019-05-28T11:45:10.333Z,14.89
2019-05-28T11:47:39.858Z,14.92
2019-05-28T11:50:08.738Z,14.87
2019-05-28T11:52:37.569Z,14.94
2019-05-28T11:55:07.407Z,14.91
2019-05-28T11:57:36.714Z,15.02
2019-05-28T12:00:05.898Z,15.02
2019-05-28T12:02:34.703Z,15.01
2019-05-28T12:05:03.578Z,15.05
2019-05-28T12:07:32.383Z,15.16
2019-05-28T12:10:01.220Z,15.25
2019-05-28T12:12:30.072Z,15.39
2019-05-28T12:14:58.955Z,15.52
2019-05-28T12:17:41.653Z,15.62
2019-05-28T12:19:57.807Z,15.74
2019-05-28T12:22:26.598Z,15.80
2019-05-28T12:24:55.472Z,15.82
2019-05-28T12:27:26.578Z,15.85
2019-05-28T12:29:55.403Z,15.87
2019-05-28T12:32:24.259Z,15.97
2019-05-28T12:34:53.114Z,16.10
2019-05-28T12:37:22.563Z,16.43
2019-05-28T12:39:52.482Z,16.71
2019-05-28T12:42:21.313Z,16.83
2019-05-28T12:45:08.321Z,16.85
2019-05-28T12:47:19.571Z,16.97
2019-05-28T12:49:48.426Z,17.17
2019-05-28T12:52:17.219Z,17.40
2019-05-28T12:54:46.828Z,17.70
2019-05-28T12:57:15.621Z,17.71
2019-05-28T12:59:44.472Z,17.95
2019-05-28T13:02:13.844Z,18.09
2019-05-28T13:04:42.865Z,18.24
2019-05-28T13:07:11.654Z,18.45
2019-05-28T13:09:42.284Z,18.71
2019-05-28T13:12:11.152Z,18.91
2019-05-28T13:14:40.068Z,18.79
2019-05-28T13:17:08.929Z,18.89
2019-05-28T13:19:38.527Z,18.87
2019-05-28T13:22:07.366Z,18.99
2019-05-28T13:24:36.195Z,19.04
2019-05-28T13:27:17.475Z,19.24
2019-05-28T13:29:33.920Z,19.14
2019-05-28T13:32:08.009Z,18.94
2019-05-28T13:34:36.491Z,19.08
2019-05-28T13:37:05.308Z,18.92
2019-05-28T13:39:35.911Z,18.95
2019-05-28T13:42:04.889Z,18.83
2019-05-28T13:44:33.779Z,18.73
2019-05-28T13:47:03.151Z,18.87
2019-05-28T13:49:31.975Z,18.89
2019-05-28T13:52:11.442Z,18.74
2019-05-28T13:54:30.252Z,18.79
2019-05-28T13:56:59.175Z,18.92
2019-05-28T13:59:28.396Z,18.95
2019-05-28T14:01:57.758Z,19.09
2019-05-28T14:04:26.637Z,19.61
2019-05-28T14:06:58.619Z,19.74
2019-05-28T14:09:27.500Z,19.84
2019-05-28T14:11:56.470Z,19.88
2019-05-28T14:14:25.277Z,19.62
2019-05-28T14:16:54.711Z,19.35
2019-05-28T14:19:23.546Z,19.37
2019-05-28T14:21:53.084Z,19.25
2019-05-28T14:24:22.468Z,19.01
2019-05-28T14:26:52.279Z,18.96
2019-05-28T14:29:21.244Z,18.84
2019-05-28T14:31:50.343Z,18.80
2019-05-28T14:34:19.224Z,18.66
2019-05-28T14:36:48.621Z,18.66
2019-05-28T14:39:17.644Z,18.48
2019-05-28T14:41:46.525Z,18.17
2019-05-28T14:44:15.431Z,17.75
2019-05-28T14:46:44.320Z,17.22
2019-05-28T14:49:13.129Z,16.93
2019-05-28T14:51:42.359Z,16.82
2019-05-28T14:54:11.175Z,16.76
2019-05-28T14:56:40.189Z,16.64
2019-05-28T14:59:09.549Z,16.48
2019-05-28T15:01:38.477Z,16.50
2019-05-28T15:04:08.093Z,16.50
2019-05-28T15:06:37.606Z,16.58
2019-05-28T15:09:20.400Z,16.68
2019-05-28T15:11:37.005Z,16.76
2019-05-28T15:14:06.031Z,16.72
2019-05-28T15:16:35.960Z,16.79
2019-05-28T15:19:04.836Z,16.84
2019-05-28T15:21:33.842Z,16.90
2019-05-28T15:24:03.268Z,16.93
2019-05-28T15:26:32.156Z,17.02
2019-05-28T15:29:01.145Z,16.96
2019-05-28T15:31:30.273Z,16.73
2019-05-28T15:33:59.408Z,16.57
2019-05-28T15:36:28.369Z,16.60
2019-05-28T15:38:57.419Z,16.69
2019-05-28T15:41:26.220Z,16.66
2019-05-28T15:43:56.608Z,16.72
2019-05-28T15:46:26.692Z,16.84
2019-05-28T15:48:56.848Z,17.01
2019-05-28T15:51:28.579Z,17.14
2019-05-28T15:53:57.459Z,17.64
2019-05-28T15:56:28.067Z,18.10
2019-05-28T15:58:57.646Z,18.07
2019-05-28T16:01:26.458Z,17.62
2019-05-28T16:03:55.378Z,17.25
2019-05-28T16:06:24.796Z,17.14
2019-05-28T16:08:54.496Z,17.24
2019-05-28T16:11:23.698Z,17.28
2019-05-28T16:13:54.708Z,17.43
2019-05-28T16:16:24.039Z,17.75
2019-05-28T16:18:52.897Z,17.86
2019-05-28T16:21:21.867Z,17.67
2019-05-28T16:23:51.692Z,17.73
2019-05-28T16:26:20.866Z,17.65
2019-05-28T16:28:53.523Z,17.50
2019-05-28T16:31:23.394Z,17.42
2019-05-28T16:33:53.310Z,17.31
2019-05-28T16:36:22.624Z,17.23
2019-05-28T16:38:53.215Z,17.28
2019-05-28T16:41:22.030Z,17.44
2019-05-28T16:43:51.417Z,17.42
2019-05-28T16:46:20.277Z,17.28
2019-05-28T16:48:49.210Z,17.20
2019-05-28T16:51:18.217Z,17.15
2019-05-28T16:53:47.225Z,16.98
2019-05-28T16:56:16.025Z,16.85
2019-05-28T16:58:44.902Z,16.73
2019-05-28T17:04:24.666Z,16.55
2019-05-28T17:07:24.600Z,16.48
2019-05-28T17:09:53.677Z,16.45
2019-05-28T17:12:23.269Z,16.38
2019-05-28T17:14:55.344Z,16.39
2019-05-28T17:17:40.215Z,16.35
2019-05-28T17:21:12.788Z,16.24
2019-05-28T17:23:46.147Z,16.08
2019-05-28T17:26:16.887Z,15.86
2019-05-28T17:28:47.367Z,15.80
2019-05-28T17:31:16.568Z,15.78
2019-05-28T17:33:47.636Z,15.73
2019-05-28T17:36:21.204Z,15.65
2019-05-28T17:39:39.469Z,15.47
2019-05-28T17:42:10.597Z,15.37
2019-05-28T17:44:40.676Z,15.34
2019-05-28T17:47:10.328Z,15.32
2019-05-28T17:49:39.262Z,15.27
2019-05-28T17:52:08.407Z,15.24
2019-05-28T17:54:37.204Z,15.14
2019-05-28T17:57:06.103Z,15.08
2019-05-28T17:59:35.540Z,14.98
2019-05-28T18:02:04.639Z,14.84
2019-05-28T18:04:33.452Z,14.79
2019-05-28T18:07:04.927Z,14.75
2019-05-28T18:09:33.998Z,14.71
2019-05-28T18:12:02.803Z,14.68
2019-05-28T18:14:31.712Z,14.67
2019-05-28T18:17:00.567Z,14.61
2019-05-28T18:19:29.383Z,14.55
2019-05-28T18:21:58.562Z,14.51
2019-05-28T18:24:27.749Z,14.44
2019-05-28T18:26:57.163Z,14.41
2019-05-28T18:29:27.302Z,14.37
2019-05-28T18:31:57.852Z,14.39
2019-05-28T18:34:27.132Z,14.37
2019-05-28T18:36:56.630Z,14.34
2019-05-28T18:39:25.770Z,14.31
2019-05-28T18:41:54.402Z,14.26
2019-05-28T18:44:24.941Z,14.25
2019-05-28T18:46:54.745Z,14.19
2019-05-28T18:49:23.697Z,14.10
2019-05-28T18:51:53.242Z,14.03
2019-05-28T18:54:22.043Z,13.99
2019-05-28T18:56:51.113Z,13.88
2019-05-28T18:59:19.987Z,13.81
2019-05-28T19:01:50.069Z,13.76
2019-05-28T19:04:20.451Z,13.69
2019-05-28T19:06:48.696Z,13.64
2019-05-28T19:09:18.510Z,13.58
2019-05-28T19:11:48.012Z,13.55
2019-05-28T19:14:17.003Z,13.47
2019-05-28T19:16:45.872Z,13.41
2019-05-28T19:19:15.710Z,13.34
2019-05-28T19:21:45.947Z,13.24
2019-05-28T19:24:15.372Z,13.20
2019-05-28T19:26:45.130Z,13.13
2019-05-28T19:29:13.978Z,13.10
2019-05-28T19:31:42.767Z,13.02
2019-05-28T19:34:12.840Z,12.97
2019-05-28T19:36:43.064Z,12.89
2019-05-28T19:39:11.916Z,12.84
2019-05-28T19:41:53.615Z,12.77
2019-05-28T19:44:11.992Z,12.73
2019-05-28T19:46:41.910Z,12.65
2019-05-28T19:49:11.813Z,12.58
2019-05-28T19:51:41.774Z,12.49
2019-05-28T19:54:12.739Z,12.44
2019-05-28T19:56:41.579Z,12.38
2019-05-28T19:59:11.597Z,12.31
2019-05-28T20:01:42.206Z,12.23
2019-05-28T20:04:11.654Z,12.19
2019-05-28T20:06:40.647Z,12.14
2019-05-28T20:09:10.373Z,12.07
2019-05-28T20:11:39.351Z,12.02
2019-05-28T20:14:09.680Z,11.95
2019-05-28T20:16:38.480Z,11.90
2019-05-28T20:19:07.308Z,11.83
2019-05-28T20:21:37.635Z,11.78
2019-05-28T20:24:06.530Z,11.70
2019-05-28T20:26:36.373Z,11.65
2019-05-28T20:29:08.357Z,11.58
2019-05-28T20:31:34.019Z,11.51
2019-05-28T20:34:03.937Z,11.47
2019-05-28T20:36:31.854Z,11.42
2019-05-28T20:39:01.564Z,11.35
2019-05-28T20:41:29.814Z,11.30
2019-05-28T20:43:58.715Z,11.27
2019-05-28T20:46:27.608Z,11.21
2019-05-28T20:48:56.411Z,11.12
2019-05-28T20:51:26.317Z,11.08
2019-05-28T20:53:55.488Z,11.03
2019-05-28T20:56:24.295Z,10.97
2019-05-28T20:58:55.883Z,10.93
2019-05-28T21:01:24.288Z,10.90
2019-05-28T21:03:53.871Z,10.82
2019-05-28T21:06:24.056Z,10.78
2019-05-28T21:08:54.115Z,10.71
2019-05-28T21:11:21.665Z,10.68
2019-05-28T21:13:50.536Z,10.65
2019-05-28T21:16:19.512Z,10.60
2019-05-28T21:18:49.043Z,10.56
2019-05-28T21:21:18.943Z,10.52
2019-05-28T21:23:47.824Z,10.47
2019-05-28T21:26:17.110Z,10.42
2019-05-28T21:28:46.541Z,10.38
2019-05-28T21:31:15.400Z,10.34
2019-05-28T21:33:44.232Z,10.32
2019-05-28T21:36:13.095Z,10.28
2019-05-28T21:38:43.006Z,10.25
2019-05-28T21:41:11.899Z,10.18
2019-05-28T21:43:40.771Z,10.15
2019-05-28T21:46:12.545Z,10.12
2019-05-28T21:48:41.368Z,10.06
2019-05-28T21:51:10.310Z,10.00
2019-05-28T21:53:39.226Z,9.96
2019-05-28T21:56:08.300Z,9.91
2019-05-28T21:58:37.120Z,9.86
2019-05-28T22:01:08.355Z,9.84
2019-05-28T22:03:37.288Z,9.80
2019-05-28T22:06:07.676Z,9.75
2019-05-28T22:08:36.561Z,9.72
2019-05-28T22:11:05.479Z,9.69
2019-05-28T22:13:42.037Z,9.65
2019-05-28T22:16:13.175Z,9.61
2019-05-28T22:18:42.507Z,9.57
2019-05-28T22:21:11.519Z,9.53
2019-05-28T22:23:40.418Z,9.50
2019-05-28T22:26:09.547Z,9.46
2019-05-28T22:28:38.400Z,9.41
2019-05-28T22:31:08.132Z,9.37
2019-05-28T22:33:36.866Z,9.34
2019-05-28T22:36:06.029Z,9.31
2019-05-28T22:38:34.855Z,9.27
2019-05-28T22:41:06.066Z,9.23
2019-05-28T22:43:34.898Z,9.19
2019-05-28T22:46:05.189Z,9.16
2019-05-28T22:48:32.840Z,9.12
2019-05-28T22:51:01.662Z,9.07
2019-05-28T22:53:31.088Z,9.04
2019-05-28T22:56:03.532Z,9.00
2019-05-28T22:58:29.670Z,8.97
2019-05-28T23:00:58.744Z,8.94
2019-05-28T23:03:27.631Z,8.91
2019-05-28T23:05:56.447Z,8.88
2019-05-28T23:08:26.769Z,8.84
2019-05-28T23:10:56.957Z,8.80
2019-05-28T23:13:24.431Z,8.77
2019-05-28T23:15:53.284Z,8.72
2019-05-28T23:18:22.180Z,8.70
2019-05-28T23:20:50.992Z,8.67
2019-05-28T23:23:20.347Z,8.64
2019-05-28T23:25:49.910Z,8.62
2019-05-28T23:28:18.757Z,8.58
2019-05-28T23:30:47.585Z,8.55
2019-05-28T23:33:16.452Z,8.52
2019-05-28T23:35:45.322Z,8.49
2019-05-28T23:38:14.212Z,8.45
2019-05-28T23:40:43.819Z,8.42
2019-05-28T23:43:13.822Z,8.39
2019-05-28T23:45:42.653Z,8.35
2019-05-28T23:48:14.957Z,8.32
2019-05-28T23:50:41.733Z,8.29
2019-05-28T23:53:11.682Z,8.24
2019-05-28T23:55:39.369Z,8.21
2019-05-28T23:58:08.245Z,8.17
